Harrisburg Junction, Utah
Current Conditions -  °F | °C
As of 12:35 PM on Thursday 27 Nov 2014 (Local Time) from KSGU Reporting Station
Clear Clear  
Wind Chill: 54°   Ceiling: Unl
Heat Index: 54°   Visibility: 10mi
Dew Point: 19°   Wind: 0mph
Humidity: 26%   Direction: NA
Pressure: 30.32"   Gusts: NA
Location:  37.1317°N, 113.795°W
Report Text: KSGU 271935Z AUTO 00000KT 10SM CLR 12/M07 A3032 RMK AO1
Loading
Personal Weather Stations






























Interactive Weather Map New forecast layout! Learn more

10-Day Weather Forecast

Advertisements
Track Severe Weather on mobile